createdAt,value
2024-01-26T00:01:46.163Z,99355.23
2024-01-26T00:04:39.032Z,99358.80
2024-01-26T00:07:32.670Z,99360.31
2024-01-26T00:10:25.966Z,99361.88
2024-01-26T00:13:18.512Z,99368.77
2024-01-26T00:16:05.448Z,99375.59
2024-01-26T00:18:58.211Z,99380.05
2024-01-26T00:21:50.787Z,99382.29
2024-01-26T00:24:45.107Z,99392.45
2024-01-26T00:27:38.035Z,99392.92
2024-01-26T00:30:32.824Z,99398.29
2024-01-26T00:33:25.421Z,99398.55
2024-01-26T00:36:18.475Z,99403.19
2024-01-26T00:39:11.252Z,99402.11
2024-01-26T00:42:04.820Z,99404.00
2024-01-26T00:44:49.900Z,99408.79
2024-01-26T00:47:43.792Z,99405.25
2024-01-26T00:50:36.557Z,99406.29
2024-01-26T00:53:29.870Z,99407.82
2024-01-26T00:56:25.381Z,99400.87
2024-01-26T00:59:19.153Z,99404.30
2024-01-26T01:02:12.099Z,99406.00
2024-01-26T01:05:08.035Z,99413.57
2024-01-26T01:08:00.857Z,99417.70
2024-01-26T01:10:53.877Z,99420.06
2024-01-26T01:13:48.799Z,99417.45
2024-01-26T01:16:42.895Z,99421.56
2024-01-26T01:19:35.623Z,99428.23
2024-01-26T01:22:29.222Z,99429.63
2024-01-26T01:25:22.660Z,99427.56
2024-01-26T01:28:16.209Z,99425.62
2024-01-26T01:31:09.040Z,99422.24
2024-01-26T01:34:01.938Z,99429.45
2024-01-26T01:37:15.549Z,99426.50
2024-01-26T01:40:11.996Z,99421.46
2024-01-26T01:43:06.214Z,99426.75
2024-01-26T01:45:58.827Z,99425.18
2024-01-26T01:48:53.999Z,99432.08
2024-01-26T01:51:50.482Z,99433.89
2024-01-26T01:54:44.112Z,99429.83
2024-01-26T01:57:40.350Z,99427.36
2024-01-26T02:00:36.352Z,99424.71
2024-01-26T02:03:31.216Z,99421.70
2024-01-26T02:06:24.005Z,99424.61
2024-01-26T02:09:17.241Z,99419.82
2024-01-26T02:11:56.685Z,99425.69
2024-01-26T02:14:49.941Z,99424.65
2024-01-26T02:17:42.680Z,99432.11
2024-01-26T02:20:46.884Z,99434.66
2024-01-26T02:23:45.158Z,99434.61
2024-01-26T02:26:27.563Z,99435.48
2024-01-26T02:29:20.039Z,99438.04
2024-01-26T02:32:12.949Z,99446.80
2024-01-26T02:35:05.964Z,99450.59
2024-01-26T02:37:58.712Z,99449.75
2024-01-26T02:40:44.467Z,99444.41
2024-01-26T02:43:39.802Z,99445.95
2024-01-26T02:46:33.648Z,99446.52
2024-01-26T02:50:13.200Z,99448.92
2024-01-26T02:52:42.237Z,99455.42
2024-01-26T02:55:35.929Z,99458.23
2024-01-26T02:58:31.330Z,99464.56
2024-01-26T03:01:27.487Z,99469.19
2024-01-26T03:04:21.075Z,99473.38
2024-01-26T03:07:22.223Z,99483.91
2024-01-26T03:10:15.411Z,99492.52
2024-01-26T03:13:09.967Z,99487.98
2024-01-26T03:16:02.613Z,99491.06
2024-01-26T03:18:58.176Z,99492.59
2024-01-26T03:21:50.783Z,99497.88
2024-01-26T03:24:45.622Z,99503.47
2024-01-26T03:27:38.225Z,99506.24
2024-01-26T03:30:34.758Z,99506.59
2024-01-26T03:33:27.628Z,99510.91
2024-01-26T03:36:21.924Z,99520.58
2024-01-26T03:39:14.857Z,99526.83
2024-01-26T03:42:12.459Z,99527.38
2024-01-26T03:45:05.848Z,99525.30
2024-01-26T03:47:59.831Z,99522.56
2024-01-26T03:50:53.391Z,99527.23
2024-01-26T03:53:46.235Z,99530.30
2024-01-26T03:56:39.757Z,99531.17
2024-01-26T03:59:25.187Z,99537.19
2024-01-26T04:02:22.738Z,99539.48
2024-01-26T04:05:15.854Z,99541.11
2024-01-26T04:08:20.658Z,99545.67
2024-01-26T04:11:06.024Z,99553.44
2024-01-26T04:13:58.914Z,99560.09
2024-01-26T04:16:41.855Z,99561.83
2024-01-26T04:19:34.397Z,99569.60
2024-01-26T04:22:27.237Z,99573.61
2024-01-26T04:25:19.902Z,99579.80
2024-01-26T04:28:12.719Z,99584.83
2024-01-26T04:31:05.618Z,99593.79
2024-01-26T04:33:59.472Z,99593.30
2024-01-26T04:36:52.630Z,99596.08
2024-01-26T04:39:46.690Z,99596.75
2024-01-26T04:42:39.680Z,99602.29
2024-01-26T04:45:32.415Z,99605.36
2024-01-26T04:48:24.023Z,99604.88
2024-01-26T04:51:17.534Z,99607.45
2024-01-26T04:54:01.685Z,99604.60
2024-01-26T04:56:54.750Z,99606.60
2024-01-26T04:59:33.146Z,99612.11
2024-01-26T05:02:25.988Z,99618.27
2024-01-26T05:05:25.181Z,99620.54
2024-01-26T05:08:18.610Z,99628.81
2024-01-26T05:11:11.449Z,99628.84
2024-01-26T05:14:04.242Z,99627.45
2024-01-26T05:16:55.245Z,99628.66
2024-01-26T05:19:48.026Z,99632.45
2024-01-26T05:22:40.990Z,99636.22
2024-01-26T05:25:34.224Z,99637.23
2024-01-26T05:28:27.691Z,99646.58
2024-01-26T05:31:11.307Z,99650.39
2024-01-26T05:33:55.201Z,99660.27
2024-01-26T05:36:44.361Z,99661.09
2024-01-26T05:39:37.021Z,99669.17
2024-01-26T05:42:29.762Z,99670.68
2024-01-26T05:45:22.355Z,99670.66
2024-01-26T05:48:15.120Z,99670.66
2024-01-26T05:51:08.870Z,99667.17
2024-01-26T05:54:04.694Z,99672.85
2024-01-26T05:56:57.954Z,99678.73
2024-01-26T05:59:50.692Z,99679.06
2024-01-26T06:02:43.300Z,99680.59
2024-01-26T06:05:38.101Z,99686.13
2024-01-26T06:08:29.951Z,99686.50
2024-01-26T06:11:13.840Z,99680.77
2024-01-26T06:14:06.690Z,99687.70
2024-01-26T06:17:00.059Z,99690.73
2024-01-26T06:19:53.247Z,99690.73
2024-01-26T06:22:46.159Z,99692.83
2024-01-26T06:25:39.958Z,99692.82
2024-01-26T06:28:26.488Z,99697.83
2024-01-26T06:31:19.258Z,99697.61
2024-01-26T06:34:12.463Z,99700.60
2024-01-26T06:37:05.464Z,99699.77
2024-01-26T06:39:59.732Z,99704.66
2024-01-26T06:42:53.111Z,99704.20
2024-01-26T06:45:47.001Z,99708.58
2024-01-26T06:48:40.067Z,99717.30
2024-01-26T06:51:33.295Z,99719.96
2024-01-26T06:54:26.281Z,99726.20
2024-01-26T06:57:04.783Z,99729.66
2024-01-26T06:59:59.499Z,99735.43
2024-01-26T07:02:52.308Z,99741.20
2024-01-26T07:05:45.357Z,99739.34
2024-01-26T07:08:40.700Z,99742.21
2024-01-26T07:11:36.358Z,99746.23
2024-01-26T07:14:32.781Z,99749.52
2024-01-26T07:17:28.412Z,99749.18
2024-01-26T07:20:12.372Z,99751.64
2024-01-26T07:22:50.950Z,99751.52
2024-01-26T07:25:43.648Z,99744.77
2024-01-26T07:28:19.155Z,99745.08
2024-01-26T07:31:01.638Z,99752.00
2024-01-26T07:33:43.600Z,99756.73
2024-01-26T07:36:21.936Z,99754.80
2024-01-26T07:39:07.030Z,99751.45
2024-01-26T07:42:00.357Z,99748.42
2024-01-26T07:44:53.374Z,99750.06
2024-01-26T07:47:48.682Z,99748.13
2024-01-26T07:50:41.353Z,99745.02
2024-01-26T07:53:37.107Z,99743.83
2024-01-26T07:56:32.260Z,99749.41
2024-01-26T07:59:25.053Z,99746.64
2024-01-26T08:02:18.148Z,99747.73
2024-01-26T08:05:14.289Z,99743.83
2024-01-26T08:08:09.349Z,99748.87
2024-01-26T08:10:45.442Z,99753.32
2024-01-26T08:13:29.806Z,99748.28
2024-01-26T08:16:23.699Z,99743.77
2024-01-26T08:19:17.842Z,99741.14
2024-01-26T08:22:10.989Z,99740.02
2024-01-26T08:24:59.521Z,99739.79
2024-01-26T08:27:54.822Z,99741.21
2024-01-26T08:30:37.624Z,99740.93
2024-01-26T08:33:31.210Z,99738.30
2024-01-26T08:36:26.913Z,99732.38
2024-01-26T08:39:14.240Z,99734.22
2024-01-26T08:42:07.553Z,99737.27
2024-01-26T08:45:00.739Z,99743.33
2024-01-26T08:47:56.742Z,99751.59
2024-01-26T08:50:49.833Z,99755.86
2024-01-26T08:53:44.347Z,99757.89
2024-01-26T08:56:20.142Z,99756.32
2024-01-26T08:59:05.908Z,99768.85
2024-01-26T09:01:41.750Z,99770.88
2024-01-26T09:04:24.494Z,99774.10
2024-01-26T09:07:20.709Z,99780.28
2024-01-26T09:09:58.855Z,99784.83
2024-01-26T09:12:46.219Z,99787.83
2024-01-26T09:15:21.317Z,99789.40
2024-01-26T09:17:54.205Z,99794.48
2024-01-26T09:20:50.054Z,99796.96
2024-01-26T09:23:46.519Z,99800.27
2024-01-26T09:26:42.127Z,99803.91
2024-01-26T09:29:17.990Z,99802.41
2024-01-26T09:31:58.397Z,99807.64
2024-01-26T09:34:42.425Z,99803.34
2024-01-26T09:37:16.572Z,99800.80
2024-01-26T09:40:15.331Z,99791.07
2024-01-26T09:43:08.957Z,99793.80
2024-01-26T09:45:45.222Z,99793.30
2024-01-26T09:48:38.853Z,99791.64
2024-01-26T09:51:33.209Z,99783.09
2024-01-26T09:54:08.506Z,99787.02
2024-01-26T09:56:57.644Z,99781.55
2024-01-26T09:59:52.341Z,99784.08
2024-01-26T10:02:37.155Z,99783.47
2024-01-26T10:05:30.633Z,99787.30
2024-01-26T10:08:03.467Z,99785.58
2024-01-26T10:10:39.100Z,99783.80
2024-01-26T10:13:21.867Z,99784.77
2024-01-26T10:16:10.825Z,99783.54
2024-01-26T10:18:52.152Z,99782.09
2024-01-26T10:21:38.979Z,99777.13
2024-01-26T10:24:34.455Z,99778.17
2024-01-26T10:27:27.853Z,99779.29
2024-01-26T10:30:15.749Z,99779.45
2024-01-26T10:32:49.646Z,99781.59
2024-01-26T10:35:49.674Z,99775.73
2024-01-26T10:38:30.223Z,99771.79
2024-01-26T10:41:23.162Z,99772.84
2024-01-26T10:44:17.094Z,99769.59
2024-01-26T10:46:53.261Z,99765.55
2024-01-26T10:49:50.286Z,99758.89
2024-01-26T10:52:44.164Z,99756.80
2024-01-26T10:55:37.641Z,99751.41
2024-01-26T10:58:30.374Z,99753.33
2024-01-26T11:01:23.489Z,99753.50
2024-01-26T11:04:08.520Z,99752.02
2024-01-26T11:06:45.914Z,99748.00
2024-01-26T11:09:21.050Z,99739.75
2024-01-26T11:12:00.075Z,99743.80
2024-01-26T11:14:37.199Z,99745.79
2024-01-26T11:17:13.844Z,99740.64
2024-01-26T11:20:14.010Z,99737.30
2024-01-26T11:23:12.865Z,99729.34
2024-01-26T11:26:01.246Z,99727.56
2024-01-26T11:28:54.009Z,99722.19
2024-01-26T11:31:46.868Z,99720.78
2024-01-26T11:34:40.049Z,99716.83
2024-01-26T11:37:33.744Z,99719.84
2024-01-26T11:40:10.506Z,99712.94
2024-01-26T11:42:54.209Z,99710.46
2024-01-26T11:45:43.523Z,99707.54
2024-01-26T11:48:19.939Z,99705.02
2024-01-26T11:51:13.310Z,99704.38
2024-01-26T11:54:09.042Z,99700.79
2024-01-26T11:57:03.574Z,99702.26
2024-01-26T11:59:55.673Z,99700.05
2024-01-26T12:02:48.973Z,99701.69
2024-01-26T12:05:42.266Z,99700.88
2024-01-26T12:08:35.661Z,99700.20
2024-01-26T12:11:29.268Z,99704.30
2024-01-26T12:14:22.506Z,99696.34
2024-01-26T12:17:15.142Z,99692.17
2024-01-26T12:20:12.790Z,99686.04
2024-01-26T12:23:07.593Z,99680.39
2024-01-26T12:26:00.775Z,99678.65
2024-01-26T12:28:55.566Z,99668.63
2024-01-26T12:31:49.862Z,99664.09
2024-01-26T12:34:38.245Z,99662.20
2024-01-26T12:37:51.731Z,99665.34
2024-01-26T12:40:27.095Z,99662.79
2024-01-26T12:43:19.958Z,99660.33
2024-01-26T12:46:14.492Z,99660.44
2024-01-26T12:48:57.705Z,99656.26
2024-01-26T12:51:43.399Z,99651.83
2024-01-26T12:54:36.092Z,99652.05
2024-01-26T12:57:23.030Z,99647.44
2024-01-26T13:00:18.539Z,99646.72
2024-01-26T13:03:10.153Z,99648.73
2024-01-26T13:06:03.278Z,99648.54
2024-01-26T13:08:56.362Z,99642.45
2024-01-26T13:11:29.430Z,99633.09
2024-01-26T13:14:22.165Z,99627.40
2024-01-26T13:17:15.423Z,99616.83
2024-01-26T13:20:19.384Z,99613.40
2024-01-26T13:22:59.305Z,99606.55
2024-01-26T13:25:53.736Z,99605.81
2024-01-26T13:28:47.531Z,99608.41
2024-01-26T13:31:33.471Z,99608.02
2024-01-26T13:34:26.696Z,99611.11
2024-01-26T13:37:19.604Z,99618.11
2024-01-26T13:39:58.095Z,99617.30
2024-01-26T13:42:52.066Z,99620.70
2024-01-26T13:45:28.523Z,99617.39
2024-01-26T13:50:57.751Z,99620.84
2024-01-26T13:53:50.824Z,99613.73
2024-01-26T13:56:44.376Z,99605.05
2024-01-26T13:59:37.364Z,99600.84
2024-01-26T14:02:30.259Z,99599.58
2024-01-26T14:05:23.373Z,99592.30
2024-01-26T14:08:16.399Z,99598.70
2024-01-26T14:10:52.303Z,99593.34
2024-01-26T14:13:45.101Z,99590.83
2024-01-26T14:16:20.243Z,99586.41
2024-01-26T14:19:13.040Z,99582.41
2024-01-26T14:22:05.119Z,99587.11
2024-01-26T14:24:58.412Z,99579.16
2024-01-26T14:27:46.243Z,99572.07
2024-01-26T14:30:44.006Z,99563.92
2024-01-26T14:33:29.499Z,99557.88
2024-01-26T14:36:22.923Z,99560.50
2024-01-26T14:39:17.453Z,99557.67
2024-01-26T14:42:10.243Z,99554.37
2024-01-26T14:44:45.880Z,99550.04
2024-01-26T14:47:21.172Z,99550.70
2024-01-26T14:49:54.214Z,99546.70
2024-01-26T14:52:27.741Z,99541.85
2024-01-26T14:55:22.698Z,99539.27
2024-01-26T14:58:04.247Z,99534.39
2024-01-26T15:00:43.010Z,99534.05
2024-01-26T15:03:25.544Z,99538.36
2024-01-26T15:06:01.480Z,99534.33
2024-01-26T15:08:45.645Z,99529.10
2024-01-26T15:11:41.583Z,99523.16
2024-01-26T15:14:24.210Z,99514.11
2024-01-26T15:17:19.541Z,99515.08
2024-01-26T15:20:08.346Z,99511.20
2024-01-26T15:23:01.712Z,99504.52
2024-01-26T15:25:54.429Z,99502.39
2024-01-26T15:28:47.616Z,99494.85
2024-01-26T15:31:40.472Z,99495.77
2024-01-26T15:34:21.741Z,99492.77
2024-01-26T15:37:17.264Z,99493.44
2024-01-26T15:40:15.836Z,99492.38
2024-01-26T15:43:08.842Z,99493.56
2024-01-26T15:45:48.745Z,99495.95
2024-01-26T15:48:42.031Z,99491.59
2024-01-26T15:51:35.106Z,99490.13
2024-01-26T15:54:28.712Z,99488.00
2024-01-26T15:57:21.439Z,99491.09
2024-01-26T16:00:16.705Z,99491.42
2024-01-26T16:03:30.700Z,99499.86
2024-01-26T16:06:23.672Z,99496.17
2024-01-26T16:09:17.816Z,99492.66
2024-01-26T16:12:11.377Z,99489.31
2024-01-26T16:15:05.218Z,99487.72
2024-01-26T16:17:58.193Z,99490.96
2024-01-26T16:20:51.168Z,99491.80
2024-01-26T16:23:44.221Z,99488.48
2024-01-26T16:26:37.811Z,99484.01
2024-01-26T16:29:30.738Z,99482.65
2024-01-26T16:32:23.525Z,99484.95
2024-01-26T16:35:16.960Z,99477.02
2024-01-26T16:38:09.868Z,99468.91
2024-01-26T16:41:02.658Z,99463.77
2024-01-26T16:43:55.469Z,99460.16
2024-01-26T16:46:48.780Z,99457.23
2024-01-26T16:49:41.746Z,99452.39
2024-01-26T16:52:36.616Z,99447.52
2024-01-26T16:55:32.467Z,99438.05
2024-01-26T16:58:28.005Z,99433.75
2024-01-26T17:01:21.105Z,99427.02
2024-01-26T17:04:06.680Z,99418.20
2024-01-26T17:07:02.496Z,99408.42
2024-01-26T17:09:56.365Z,99401.88
2024-01-26T17:12:50.131Z,99400.86
2024-01-26T17:15:41.268Z,99382.81
2024-01-26T17:18:35.341Z,99376.18
2024-01-26T17:21:29.630Z,99371.04
2024-01-26T17:24:22.443Z,99368.46
2024-01-26T17:27:15.296Z,99364.27
2024-01-26T17:30:09.855Z,99360.89
2024-01-26T17:33:49.900Z,99349.49
2024-01-26T17:36:11.937Z,99340.13
2024-01-26T17:39:06.145Z,99340.64
2024-01-26T17:41:59.119Z,99343.39
2024-01-26T17:44:53.346Z,99347.16
2024-01-26T17:47:36.056Z,99351.48
2024-01-26T17:50:28.809Z,99353.89
2024-01-26T17:53:21.335Z,99351.43
2024-01-26T17:56:13.864Z,99347.27
2024-01-26T17:59:06.464Z,99342.10
2024-01-26T18:01:59.082Z,99344.91
2024-01-26T18:04:51.966Z,99339.63
2024-01-26T18:07:44.477Z,99341.44
2024-01-26T18:10:37.300Z,99332.27
2024-01-26T18:13:29.853Z,99327.65
2024-01-26T18:16:22.584Z,99325.30
2024-01-26T18:19:17.138Z,99328.00
2024-01-26T18:22:09.087Z,99323.98
2024-01-26T18:25:01.160Z,99312.89
2024-01-26T18:27:55.233Z,99305.81
2024-01-26T18:30:48.021Z,99303.54
2024-01-26T18:33:41.706Z,99298.91
2024-01-26T18:36:34.496Z,99298.27
2024-01-26T18:39:27.233Z,99289.88
2024-01-26T18:42:19.780Z,99276.17
2024-01-26T18:45:34.115Z,99266.11
2024-01-26T18:48:27.546Z,99268.57
2024-01-26T18:51:20.276Z,99270.13
2024-01-26T18:54:34.059Z,99270.78
2024-01-26T18:57:28.409Z,99271.50
2024-01-26T19:00:21.557Z,99263.89
2024-01-26T19:03:07.428Z,99255.25
2024-01-26T19:05:50.379Z,99245.52
2024-01-26T19:08:43.120Z,99232.66
2024-01-26T19:12:21.424Z,99229.52
2024-01-26T19:14:50.539Z,99228.55
2024-01-26T19:17:43.384Z,99221.50
2024-01-26T19:20:36.647Z,99212.75
2024-01-26T19:23:32.332Z,99201.20
2024-01-26T19:26:26.133Z,99193.81
2024-01-26T19:29:19.280Z,99196.23
2024-01-26T19:32:12.468Z,99192.25
2024-01-26T19:34:47.526Z,99189.30
2024-01-26T19:37:40.819Z,99190.36
2024-01-26T19:40:33.409Z,99184.13
2024-01-26T19:43:26.573Z,99177.40
2024-01-26T19:46:19.286Z,99168.27
2024-01-26T19:49:02.213Z,99164.32
2024-01-26T19:51:54.975Z,99156.95
2024-01-26T19:54:47.623Z,99154.41
2024-01-26T19:57:41.522Z,99161.87
2024-01-26T20:00:34.628Z,99163.30
2024-01-26T20:03:27.533Z,99157.65
2024-01-26T20:06:20.368Z,99151.11
2024-01-26T20:09:13.190Z,99145.49
2024-01-26T20:12:06.656Z,99138.65
2024-01-26T20:14:59.825Z,99133.17
2024-01-26T20:17:55.380Z,99125.30
2024-01-26T20:21:08.223Z,99125.88
2024-01-26T20:24:04.592Z,99132.39
2024-01-26T20:26:58.703Z,99134.19
2024-01-26T20:29:51.726Z,99132.88
2024-01-26T20:32:48.341Z,99132.27
2024-01-26T20:35:42.281Z,99128.55
2024-01-26T20:38:37.441Z,99126.70
2024-01-26T20:41:30.446Z,99123.46
2024-01-26T20:44:23.667Z,99127.66
2024-01-26T20:47:17.037Z,99126.02
2024-01-26T20:50:16.010Z,99119.00
2024-01-26T20:53:09.257Z,99111.97
2024-01-26T20:56:04.257Z,99106.83
2024-01-26T20:58:59.835Z,99101.34
2024-01-26T21:01:53.458Z,99095.66
2024-01-26T21:05:06.877Z,99091.52
2024-01-26T21:08:01.652Z,99090.39
2024-01-26T21:10:54.373Z,99082.98
2024-01-26T21:13:46.952Z,99078.16
2024-01-26T21:16:39.931Z,99072.48
2024-01-26T21:19:32.957Z,99068.19
2024-01-26T21:22:25.496Z,99068.55
2024-01-26T21:25:19.818Z,99066.14
2024-01-26T21:28:12.537Z,99070.48
2024-01-26T21:31:06.937Z,99069.50
2024-01-26T21:33:59.785Z,99063.66
2024-01-26T21:36:52.997Z,99060.59
2024-01-26T21:39:48.273Z,99058.03
2024-01-26T21:42:40.970Z,99047.15
2024-01-26T21:45:33.693Z,99045.11
2024-01-26T21:48:26.849Z,99047.02
2024-01-26T21:51:19.875Z,99048.41
2024-01-26T21:54:16.785Z,99048.77
2024-01-26T21:57:09.556Z,99053.73
2024-01-26T22:00:02.403Z,99055.60
2024-01-26T22:02:38.929Z,99053.14
2024-01-26T22:05:34.424Z,99052.52
2024-01-26T22:08:27.041Z,99049.86
2024-01-26T22:11:19.582Z,99050.13
2024-01-26T22:14:13.607Z,99045.49
2024-01-26T22:17:06.740Z,99043.28
2024-01-26T22:19:59.605Z,99042.28
2024-01-26T22:22:52.196Z,99042.65
2024-01-26T22:25:37.474Z,99043.39
2024-01-26T22:28:30.077Z,99042.02
2024-01-26T22:31:25.304Z,99038.23
2024-01-26T22:34:18.746Z,99032.89
2024-01-26T22:37:19.410Z,99034.46
2024-01-26T22:40:14.176Z,99029.00
2024-01-26T22:43:18.726Z,99023.07
2024-01-26T22:46:02.014Z,99023.20
2024-01-26T22:49:15.510Z,99024.55
2024-01-26T22:52:08.685Z,99016.71
2024-01-26T22:55:03.443Z,99014.58
2024-01-26T22:57:48.449Z,99008.70
2024-01-26T23:00:41.143Z,99009.73
2024-01-26T23:03:33.735Z,99004.40
2024-01-26T23:06:26.461Z,98999.23
2024-01-26T23:09:19.504Z,98997.83
2024-01-26T23:12:12.403Z,98992.15
2024-01-26T23:15:06.704Z,98995.46
2024-01-26T23:17:59.418Z,98988.52
2024-01-26T23:20:54.430Z,98985.20
2024-01-26T23:23:46.992Z,98980.02
2024-01-26T23:26:40.242Z,98983.47
2024-01-26T23:29:32.820Z,98986.03
2024-01-26T23:32:25.410Z,98988.43
2024-01-26T23:35:18.038Z,98984.45
2024-01-26T23:38:12.497Z,98981.84
2024-01-26T23:41:08.277Z,98983.55
2024-01-26T23:44:02.416Z,98982.17
2024-01-26T23:46:57.502Z,98978.21
2024-01-26T23:49:50.122Z,98969.44
2024-01-26T23:52:42.725Z,98966.17
2024-01-26T23:55:35.709Z,98964.54
2024-01-26T23:58:28.295Z,98964.96
